createdAt,value
2018-05-04T00:01:33.400Z,2.00
2018-05-04T00:04:00.984Z,1.60
2018-05-04T00:06:28.544Z,1.90
2018-05-04T00:08:57.156Z,2.07
2018-05-04T00:11:24.663Z,1.57
2018-05-04T00:13:52.173Z,1.53
2018-05-04T00:16:20.440Z,1.90
2018-05-04T00:18:48.801Z,1.93
2018-05-04T00:21:16.452Z,2.20
2018-05-04T00:23:43.986Z,2.10
2018-05-04T00:26:12.305Z,2.10
2018-05-04T00:28:39.892Z,2.07
2018-05-04T00:31:12.369Z,2.20
2018-05-04T00:33:40.034Z,2.10
2018-05-04T00:36:07.587Z,2.10
2018-05-04T00:38:36.078Z,2.17
2018-05-04T00:41:04.373Z,2.57
2018-05-04T00:43:32.057Z,2.23
2018-05-04T00:46:00.333Z,2.50
2018-05-04T00:48:28.734Z,2.23
2018-05-04T00:50:56.996Z,1.80
2018-05-04T00:53:24.620Z,2.20
2018-05-04T00:55:52.156Z,2.10
2018-05-04T00:58:20.493Z,2.10
2018-05-04T01:00:48.121Z,2.30
2018-05-04T01:03:16.404Z,2.27
2018-05-04T01:05:43.961Z,2.13
2018-05-04T01:08:11.496Z,2.33
2018-05-04T01:10:39.172Z,1.87
2018-05-04T01:13:06.825Z,2.60
2018-05-04T01:15:34.352Z,2.20
2018-05-04T01:18:01.960Z,2.03
2018-05-04T01:20:30.224Z,2.60
2018-05-04T01:22:57.921Z,2.20
2018-05-04T01:25:25.468Z,2.43
2018-05-04T01:27:53.081Z,2.60
2018-05-04T01:30:20.649Z,2.40
2018-05-04T01:32:48.147Z,2.40
2018-05-04T01:35:15.825Z,2.83
2018-05-04T01:37:43.350Z,2.40
2018-05-04T01:40:11.658Z,2.50
2018-05-04T01:42:39.229Z,2.30
2018-05-04T01:45:06.795Z,2.50
2018-05-04T01:47:34.331Z,2.20
2018-05-04T01:50:01.935Z,2.73
2018-05-04T01:52:29.483Z,3.20
2018-05-04T01:54:57.750Z,2.70
2018-05-04T01:57:25.285Z,3.20
2018-05-04T01:59:52.776Z,2.60
2018-05-04T02:02:20.399Z,2.50
2018-05-04T02:04:49.402Z,2.70
2018-05-04T02:07:17.691Z,2.60
2018-05-04T02:09:45.959Z,2.30
2018-05-04T02:12:13.532Z,2.90
2018-05-04T02:14:41.797Z,2.50
2018-05-04T02:17:09.420Z,3.20
2018-05-04T02:19:36.947Z,2.90
2018-05-04T02:22:04.588Z,2.60
2018-05-04T02:24:32.277Z,3.10
2018-05-04T02:26:59.944Z,3.47
2018-05-04T02:29:27.618Z,2.67
2018-05-04T02:31:55.132Z,3.43
2018-05-04T02:34:23.524Z,3.30
2018-05-04T02:36:51.897Z,3.00
2018-05-04T02:39:19.738Z,3.00
2018-05-04T02:41:47.336Z,3.27
2018-05-04T02:44:14.953Z,3.77
2018-05-04T02:46:43.224Z,4.17
2018-05-04T02:49:11.744Z,3.20
2018-05-04T02:51:39.310Z,2.77
2018-05-04T02:54:07.007Z,2.77
2018-05-04T02:56:34.711Z,3.00
2018-05-04T02:59:02.289Z,2.27
2018-05-04T03:01:30.221Z,2.30
2018-05-04T03:03:57.963Z,2.70
2018-05-04T03:06:25.953Z,2.70
2018-05-04T03:08:54.282Z,2.43
2018-05-04T03:11:21.935Z,3.20
2018-05-04T03:13:49.698Z,2.90
2018-05-04T03:16:18.175Z,3.03
2018-05-04T03:18:45.957Z,3.10
2018-05-04T03:21:14.496Z,3.37
2018-05-04T03:23:42.030Z,2.97
2018-05-04T03:26:10.634Z,2.87
2018-05-04T03:28:38.974Z,2.93
2018-05-04T03:31:07.335Z,2.90
2018-05-04T03:33:35.054Z,3.17
2018-05-04T03:36:02.686Z,2.87
2018-05-04T03:38:30.256Z,3.23
2018-05-04T03:40:58.041Z,3.27
2018-05-04T03:43:26.005Z,3.13
2018-05-04T03:45:54.601Z,3.30
2018-05-04T03:48:22.197Z,3.80
2018-05-04T03:50:50.151Z,3.30
2018-05-04T03:53:17.750Z,3.20
2018-05-04T03:55:45.335Z,3.70
2018-05-04T03:58:24.827Z,3.97
2018-05-04T04:01:05.215Z,3.40
2018-05-04T04:03:44.678Z,3.20
2018-05-04T04:06:12.172Z,3.50
2018-05-04T04:08:39.940Z,3.50
2018-05-04T04:11:07.765Z,3.43
2018-05-04T04:13:36.819Z,4.30
2018-05-04T04:16:04.378Z,3.47
2018-05-04T04:18:32.050Z,3.77
2018-05-04T04:20:59.844Z,3.70
2018-05-04T04:23:27.728Z,4.27
2018-05-04T04:25:55.247Z,3.87
2018-05-04T04:28:23.906Z,3.20
2018-05-04T04:30:51.931Z,3.33
2018-05-04T04:33:20.408Z,4.07
2018-05-04T04:35:48.119Z,3.60
2018-05-04T04:38:15.974Z,3.27
2018-05-04T04:40:43.558Z,3.87
2018-05-04T04:43:11.969Z,3.60
2018-05-04T04:45:39.650Z,3.70
2018-05-04T04:48:07.639Z,4.13
2018-05-04T04:50:35.173Z,5.23
2018-05-04T04:53:03.636Z,3.50
2018-05-04T04:55:31.229Z,3.83
2018-05-04T04:57:58.904Z,3.37
2018-05-04T05:00:27.219Z,3.30
2018-05-04T05:02:54.733Z,3.63
2018-05-04T05:05:22.220Z,6.23
2018-05-04T05:07:50.046Z,5.23
2018-05-04T05:10:17.731Z,3.80
2018-05-04T05:12:45.265Z,3.07
2018-05-04T05:15:13.603Z,2.87
2018-05-04T05:17:41.161Z,2.70
2018-05-04T05:20:08.724Z,2.63
2018-05-04T05:22:36.280Z,2.60
2018-05-04T05:25:03.830Z,2.53
2018-05-04T05:27:31.312Z,2.13
2018-05-04T05:29:59.930Z,2.53
2018-05-04T05:32:27.489Z,2.63
2018-05-04T05:34:55.051Z,3.50
2018-05-04T05:37:22.707Z,2.43
2018-05-04T05:39:50.443Z,2.57
2018-05-04T05:42:18.069Z,2.47
2018-05-04T05:44:46.424Z,2.50
2018-05-04T05:47:13.942Z,2.07
2018-05-04T05:49:41.482Z,2.80
2018-05-04T05:52:08.998Z,2.23
2018-05-04T05:54:36.614Z,2.70
2018-05-04T05:57:04.072Z,2.13
2018-05-04T05:59:31.576Z,2.13
2018-05-04T06:01:59.883Z,2.47
2018-05-04T06:04:27.486Z,3.03
2018-05-04T06:06:55.172Z,2.40
2018-05-04T06:09:22.732Z,2.70
2018-05-04T06:11:50.257Z,3.80
2018-05-04T06:14:18.672Z,3.40
2018-05-04T06:16:46.199Z,2.93
2018-05-04T06:19:13.820Z,2.20
2018-05-04T06:21:41.308Z,2.40
2018-05-04T06:24:08.853Z,3.43
2018-05-04T06:26:36.472Z,1.90
2018-05-04T06:29:04.076Z,2.50
2018-05-04T06:31:32.363Z,2.80
2018-05-04T06:34:00.644Z,2.17
2018-05-04T06:36:28.910Z,2.73
2018-05-04T06:38:56.498Z,2.57
2018-05-04T06:41:24.749Z,2.10
2018-05-04T06:43:52.271Z,3.10
2018-05-04T06:46:20.509Z,2.40
2018-05-04T06:48:48.100Z,1.60
2018-05-04T06:51:15.613Z,2.57
2018-05-04T06:53:44.686Z,4.07
2018-05-04T06:56:13.675Z,2.40
2018-05-04T06:58:41.405Z,2.40
2018-05-04T07:01:08.952Z,2.50
2018-05-04T07:03:37.342Z,2.97
2018-05-04T07:06:05.607Z,2.20
2018-05-04T07:08:33.086Z,1.77
2018-05-04T07:11:00.605Z,1.27
2018-05-04T07:13:28.333Z,1.57
2018-05-04T07:15:55.926Z,1.30
2018-05-04T07:18:23.537Z,2.00
2018-05-04T07:20:51.060Z,1.80
2018-05-04T07:23:18.594Z,1.70
2018-05-04T07:25:46.151Z,1.43
2018-05-04T07:28:13.654Z,1.73
2018-05-04T07:30:41.227Z,1.40
2018-05-04T07:33:08.782Z,1.53
2018-05-04T07:35:36.401Z,4.13
2018-05-04T07:38:06.669Z,1.60
2018-05-04T07:40:34.155Z,1.30
2018-05-04T07:43:02.588Z,1.03
2018-05-04T07:45:30.751Z,1.57
2018-05-04T07:47:59.161Z,1.10
2018-05-04T07:50:27.640Z,1.30
2018-05-04T07:52:55.513Z,1.00
2018-05-04T07:55:23.779Z,1.50
2018-05-04T07:57:51.299Z,1.60
2018-05-04T08:00:19.544Z,1.70
2018-05-04T08:02:47.181Z,1.00
2018-05-04T08:05:15.423Z,0.90
2018-05-04T08:07:42.982Z,1.77
2018-05-04T08:10:10.504Z,1.10
2018-05-04T08:12:38.024Z,1.70
2018-05-04T08:15:05.547Z,1.40
2018-05-04T08:17:33.108Z,1.10
2018-05-04T08:20:00.710Z,1.30
2018-05-04T08:22:28.185Z,1.20
2018-05-04T08:24:55.675Z,1.33
2018-05-04T08:27:23.174Z,1.17
2018-05-04T08:29:50.691Z,1.40
2018-05-04T08:32:18.219Z,1.43
2018-05-04T08:34:46.503Z,1.30
2018-05-04T08:37:14.107Z,3.20
2018-05-04T08:39:41.594Z,1.73
2018-05-04T08:42:09.078Z,1.53
2018-05-04T08:44:36.580Z,1.70
2018-05-04T08:47:04.141Z,1.23
2018-05-04T08:49:32.677Z,1.30
2018-05-04T08:52:00.174Z,1.00
2018-05-04T08:54:27.902Z,1.80
2018-05-04T08:56:55.381Z,1.23
2018-05-04T08:59:22.939Z,1.37
2018-05-04T09:01:51.225Z,1.17
2018-05-04T09:04:19.058Z,1.00
2018-05-04T09:06:46.686Z,1.13
2018-05-04T09:09:14.937Z,1.33
2018-05-04T09:11:42.470Z,1.13
2018-05-04T09:14:10.048Z,1.40
2018-05-04T09:16:37.604Z,1.03
2018-05-04T09:19:05.224Z,1.20
2018-05-04T09:21:32.858Z,1.53
2018-05-04T09:24:00.384Z,1.53
2018-05-04T09:26:28.008Z,1.13
2018-05-04T09:28:55.505Z,1.23
2018-05-04T09:31:23.011Z,1.67
2018-05-04T09:33:51.262Z,1.27
2018-05-04T09:36:18.819Z,1.23
2018-05-04T09:38:46.322Z,3.33
2018-05-04T09:41:13.814Z,1.20
2018-05-04T09:43:42.228Z,1.40
2018-05-04T09:46:09.767Z,1.40
2018-05-04T09:48:37.367Z,1.97
2018-05-04T09:51:04.900Z,1.70
2018-05-04T09:53:33.977Z,1.30
2018-05-04T09:56:01.576Z,1.70
2018-05-04T09:58:29.014Z,2.23
2018-05-04T10:00:56.689Z,1.83
2018-05-04T10:03:24.490Z,1.30
2018-05-04T10:05:51.979Z,1.80
2018-05-04T10:08:19.495Z,2.00
2018-05-04T10:10:47.031Z,1.50
2018-05-04T10:13:15.303Z,1.80
2018-05-04T10:15:42.805Z,1.60
2018-05-04T10:18:10.360Z,1.73
2018-05-04T10:20:38.756Z,1.57
2018-05-04T10:23:07.067Z,2.13
2018-05-04T10:25:34.549Z,1.50
2018-05-04T10:28:02.076Z,2.40
2018-05-04T10:30:29.568Z,1.47
2018-05-04T10:32:57.330Z,1.87
2018-05-04T10:35:25.074Z,1.50
2018-05-04T10:37:53.039Z,1.13
2018-05-04T10:40:20.601Z,1.60
2018-05-04T10:42:48.115Z,2.13
2018-05-04T10:45:15.774Z,1.63
2018-05-04T10:47:43.277Z,1.60
2018-05-04T10:50:11.540Z,1.53
2018-05-04T10:52:39.165Z,1.47
2018-05-04T10:55:06.710Z,1.20
2018-05-04T10:57:35.088Z,1.63
2018-05-04T11:00:03.455Z,1.70
2018-05-04T11:02:31.018Z,1.50
2018-05-04T11:04:58.529Z,1.63
2018-05-04T11:07:26.806Z,1.40
2018-05-04T11:09:54.399Z,3.10
2018-05-04T11:12:22.696Z,1.67
2018-05-04T11:14:50.237Z,2.20
2018-05-04T11:17:19.168Z,1.10
2018-05-04T11:19:46.696Z,2.17
2018-05-04T11:22:14.194Z,2.93
2018-05-04T11:24:42.485Z,3.90
2018-05-04T11:27:10.773Z,3.60
2018-05-04T11:29:39.099Z,1.50
2018-05-04T11:32:06.646Z,2.63
2018-05-04T11:34:34.216Z,1.33
2018-05-04T11:37:01.749Z,1.60
2018-05-04T11:39:29.419Z,3.83
2018-05-04T11:41:56.996Z,3.70
2018-05-04T11:44:24.606Z,6.70
2018-05-04T11:46:52.134Z,1.47
2018-05-04T11:49:19.718Z,5.33
2018-05-04T11:51:48.013Z,1.70
2018-05-04T11:54:16.304Z,1.80
2018-05-04T11:56:44.614Z,1.60
2018-05-04T11:59:12.868Z,1.60
2018-05-04T12:01:40.463Z,3.10
2018-05-04T12:04:08.840Z,1.43
2018-05-04T12:06:36.359Z,1.70
2018-05-04T12:09:03.847Z,1.20
2018-05-04T12:11:31.403Z,1.20
2018-05-04T12:13:58.909Z,1.30
2018-05-04T12:16:26.511Z,1.33
2018-05-04T12:18:54.133Z,1.53
2018-05-04T12:21:21.622Z,1.80
2018-05-04T12:23:50.817Z,1.50
2018-05-04T12:26:18.327Z,1.10
2018-05-04T12:28:45.825Z,1.10
2018-05-04T12:31:13.353Z,2.13
2018-05-04T12:33:40.913Z,1.70
2018-05-04T12:36:08.429Z,1.57
2018-05-04T12:38:36.037Z,1.60
2018-05-04T12:41:03.747Z,1.33
2018-05-04T12:43:31.267Z,1.17
2018-05-04T12:45:58.827Z,0.97
2018-05-04T12:48:26.369Z,1.50
2018-05-04T12:50:54.778Z,1.37
2018-05-04T12:53:22.320Z,1.30
2018-05-04T12:55:50.614Z,1.10
2018-05-04T12:58:18.927Z,1.20
2018-05-04T13:00:46.540Z,1.50
2018-05-04T13:03:14.050Z,0.90
2018-05-04T13:05:42.341Z,1.27
2018-05-04T13:08:10.661Z,1.27
2018-05-04T13:10:38.206Z,1.07
2018-05-04T13:13:06.462Z,1.20
2018-05-04T13:15:34.170Z,1.73
2018-05-04T13:18:02.548Z,1.57
2018-05-04T13:20:30.862Z,2.40
2018-05-04T13:22:58.370Z,2.10
2018-05-04T13:25:25.880Z,1.10
2018-05-04T13:27:54.172Z,1.20
2018-05-04T13:30:22.491Z,1.43
2018-05-04T13:32:49.986Z,0.93
2018-05-04T13:35:17.518Z,1.47
2018-05-04T13:37:45.848Z,1.30
2018-05-04T13:40:13.404Z,1.07
2018-05-04T13:42:41.078Z,1.13
2018-05-04T13:45:08.604Z,1.30
2018-05-04T13:47:36.930Z,1.00
2018-05-04T13:50:04.456Z,1.10
2018-05-04T13:52:32.270Z,1.37
2018-05-04T13:54:59.769Z,1.40
2018-05-04T13:57:27.374Z,1.00
2018-05-04T13:59:54.972Z,1.17
2018-05-04T14:02:22.493Z,1.33
2018-05-04T14:04:50.003Z,1.20
2018-05-04T14:07:18.337Z,1.60
2018-05-04T14:09:46.043Z,0.93
2018-05-04T14:12:13.616Z,1.10
2018-05-04T14:14:41.207Z,0.97
2018-05-04T14:17:09.489Z,1.23
2018-05-04T14:19:37.049Z,1.07
2018-05-04T14:22:04.559Z,1.30
2018-05-04T14:24:32.073Z,1.00
2018-05-04T14:26:59.557Z,1.20
2018-05-04T14:29:27.154Z,1.00
2018-05-04T14:31:54.893Z,1.47
2018-05-04T14:34:22.526Z,1.40
2018-05-04T14:36:50.018Z,0.90
2018-05-04T14:39:17.555Z,1.07
2018-05-04T14:41:45.876Z,1.47
2018-05-04T14:44:13.377Z,1.50
2018-05-04T14:46:41.075Z,1.37
2018-05-04T14:49:09.392Z,1.27
2018-05-04T14:51:36.922Z,1.23
2018-05-04T14:54:05.812Z,1.00
2018-05-04T14:56:33.341Z,0.90
2018-05-04T14:59:01.007Z,1.63
2018-05-04T15:01:28.541Z,1.10
2018-05-04T15:03:56.884Z,1.03
2018-05-04T15:06:24.418Z,1.33
2018-05-04T15:08:52.806Z,1.80
2018-05-04T15:11:21.055Z,2.20
2018-05-04T15:13:48.572Z,1.37
2018-05-04T15:16:16.860Z,5.60
2018-05-04T15:18:45.168Z,2.30
2018-05-04T15:21:12.647Z,1.50
2018-05-04T15:23:40.167Z,1.43
2018-05-04T15:26:07.776Z,1.30
2018-05-04T15:28:35.306Z,1.30
2018-05-04T15:31:03.726Z,1.07
2018-05-04T15:33:32.131Z,1.40
2018-05-04T15:35:59.649Z,1.43
2018-05-04T15:38:27.311Z,1.17
2018-05-04T15:40:55.622Z,1.40
2018-05-04T15:43:23.225Z,1.07
2018-05-04T15:45:51.562Z,1.23
2018-05-04T15:48:25.600Z,0.80
2018-05-04T15:50:58.801Z,1.13
2018-05-04T15:53:26.558Z,1.30
2018-05-04T15:55:54.025Z,0.80
2018-05-04T15:58:21.549Z,1.63
2018-05-04T16:00:49.872Z,1.90
2018-05-04T16:03:17.603Z,1.00
2018-05-04T16:05:45.864Z,1.70
2018-05-04T16:08:13.504Z,1.27
2018-05-04T16:10:41.070Z,1.07
2018-05-04T16:13:08.590Z,1.00
2018-05-04T16:15:36.223Z,1.20
2018-05-04T16:18:03.736Z,1.13
2018-05-04T16:20:31.447Z,1.00
2018-05-04T16:22:59.741Z,1.33
2018-05-04T16:25:27.265Z,2.17
2018-05-04T16:27:54.899Z,4.07
2018-05-04T16:30:22.448Z,2.13
2018-05-04T16:32:50.904Z,1.10
2018-05-04T16:35:18.513Z,1.57
2018-05-04T16:37:47.079Z,1.10
2018-05-04T16:40:14.612Z,1.20
2018-05-04T16:42:42.144Z,1.00
2018-05-04T16:45:10.428Z,1.37
2018-05-04T16:47:44.485Z,1.40
2018-05-04T16:50:12.082Z,1.63
2018-05-04T16:52:39.674Z,1.10
2018-05-04T16:55:07.304Z,1.10
2018-05-04T16:57:34.861Z,1.37
2018-05-04T17:00:02.452Z,1.13
2018-05-04T17:02:30.013Z,1.33
2018-05-04T17:04:57.718Z,1.30
2018-05-04T17:07:26.029Z,1.60
2018-05-04T17:09:53.583Z,1.67
2018-05-04T17:12:21.094Z,1.27
2018-05-04T17:14:48.735Z,2.60
2018-05-04T17:17:16.335Z,2.17
2018-05-04T17:19:44.630Z,1.43
2018-05-04T17:22:12.990Z,1.50
2018-05-04T17:24:41.007Z,2.53
2018-05-04T17:27:09.299Z,1.80
2018-05-04T17:29:36.831Z,1.40
2018-05-04T17:32:04.391Z,1.70
2018-05-04T17:34:31.956Z,1.20
2018-05-04T17:36:59.495Z,1.17
2018-05-04T17:39:26.979Z,1.30
2018-05-04T17:41:55.201Z,8.43
2018-05-04T17:44:22.837Z,29.90
2018-05-04T17:46:50.358Z,16.80
2018-05-04T17:49:17.894Z,15.40
2018-05-04T17:51:45.855Z,6.37
2018-05-04T17:54:13.383Z,3.60
2018-05-04T17:56:40.984Z,15.77
2018-05-04T17:59:08.676Z,7.20
2018-05-04T18:01:36.172Z,12.03
2018-05-04T18:04:03.706Z,3.10
2018-05-04T18:06:31.389Z,3.20
2018-05-04T18:08:59.279Z,2.60
2018-05-04T18:11:27.139Z,1.70
2018-05-04T18:13:54.686Z,2.10
2018-05-04T18:16:22.967Z,5.87
2018-05-04T18:18:50.593Z,3.13
2018-05-04T18:21:18.149Z,2.20
2018-05-04T18:23:45.709Z,1.97
2018-05-04T18:26:13.272Z,3.87
2018-05-04T18:28:41.541Z,2.47
2018-05-04T18:31:09.113Z,2.73
2018-05-04T18:33:36.626Z,8.10
2018-05-04T18:36:04.173Z,2.80
2018-05-04T18:38:32.515Z,2.80
2018-05-04T18:41:00.050Z,2.00
2018-05-04T18:43:27.711Z,2.07
2018-05-04T18:45:55.342Z,3.73
2018-05-04T18:48:23.110Z,3.90
2018-05-04T18:50:50.947Z,2.50
2018-05-04T18:53:18.606Z,1.93
2018-05-04T18:55:46.260Z,2.00
2018-05-04T18:58:13.794Z,2.50
2018-05-04T19:00:41.336Z,1.90
2018-05-04T19:03:14.551Z,1.77
2018-05-04T19:05:42.069Z,1.47
2018-05-04T19:08:09.921Z,1.67
2018-05-04T19:10:37.510Z,2.00
2018-05-04T19:13:05.268Z,1.60
2018-05-04T19:15:33.081Z,1.57
2018-05-04T19:18:03.072Z,2.40
2018-05-04T19:20:30.996Z,1.70
2018-05-04T19:22:58.817Z,1.70
2018-05-04T19:25:26.432Z,2.40
2018-05-04T19:27:53.984Z,2.50
2018-05-04T19:30:21.502Z,2.30
2018-05-04T19:32:49.914Z,2.00
2018-05-04T19:35:17.866Z,2.53
2018-05-04T19:37:46.229Z,3.23
2018-05-04T19:40:13.776Z,3.03
2018-05-04T19:42:41.406Z,2.90
2018-05-04T19:45:09.155Z,2.77
2018-05-04T19:47:37.035Z,2.20
2018-05-04T19:50:04.759Z,6.37
2018-05-04T19:52:32.598Z,4.93
2018-05-04T19:55:00.183Z,2.97
2018-05-04T19:57:29.505Z,3.00
2018-05-04T19:59:57.110Z,2.20
2018-05-04T20:02:24.674Z,2.87
2018-05-04T20:04:52.944Z,2.30
2018-05-04T20:07:21.062Z,1.93
2018-05-04T20:09:48.600Z,2.13
2018-05-04T20:12:16.136Z,2.00
2018-05-04T20:14:43.821Z,2.20
2018-05-04T20:17:12.204Z,4.73
2018-05-04T20:19:39.751Z,4.53
2018-05-04T20:22:07.595Z,2.90
2018-05-04T20:24:35.267Z,3.20
2018-05-04T20:27:02.872Z,2.80
2018-05-04T20:29:30.414Z,3.40
2018-05-04T20:31:57.966Z,3.10
2018-05-04T20:34:25.583Z,3.00
2018-05-04T20:36:53.135Z,2.93
2018-05-04T20:39:21.446Z,2.47
2018-05-04T20:41:48.953Z,2.30
2018-05-04T20:44:17.310Z,2.83
2018-05-04T20:46:44.859Z,2.90
2018-05-04T20:49:12.479Z,2.43
2018-05-04T20:51:40.119Z,2.30
2018-05-04T20:54:07.694Z,2.97
2018-05-04T20:56:35.230Z,2.93
2018-05-04T20:59:02.754Z,3.03
2018-05-04T21:01:30.386Z,2.77
2018-05-04T21:03:58.042Z,2.73
2018-05-04T21:06:25.649Z,2.70
2018-05-04T21:08:53.190Z,2.50
2018-05-04T21:11:20.759Z,3.30
2018-05-04T21:13:48.326Z,2.47
2018-05-04T21:16:16.617Z,2.90
2018-05-04T21:18:44.116Z,3.27
2018-05-04T21:21:11.886Z,2.50
2018-05-04T21:23:39.380Z,2.93
2018-05-04T21:26:06.893Z,2.93
2018-05-04T21:28:35.862Z,2.33
2018-05-04T21:31:03.377Z,3.00
2018-05-04T21:33:31.763Z,3.57
2018-05-04T21:35:59.334Z,3.70
2018-05-04T21:38:26.875Z,2.57
2018-05-04T21:40:54.464Z,2.10
2018-05-04T21:43:22.749Z,2.60
2018-05-04T21:45:50.253Z,2.40
2018-05-04T21:48:18.747Z,3.30
2018-05-04T21:50:46.246Z,3.33
2018-05-04T21:53:14.021Z,3.10
2018-05-04T21:55:41.513Z,2.40
2018-05-04T21:58:09.205Z,2.77
2018-05-04T22:00:36.859Z,2.60
2018-05-04T22:03:04.582Z,2.73
2018-05-04T22:05:32.099Z,1.80
2018-05-04T22:07:59.760Z,2.23
2018-05-04T22:10:28.039Z,2.00
2018-05-04T22:12:55.522Z,2.13
2018-05-04T22:15:23.313Z,3.00
2018-05-04T22:17:50.775Z,2.40
2018-05-04T22:20:18.276Z,2.47
2018-05-04T22:22:46.547Z,2.30
2018-05-04T22:25:14.179Z,2.67
2018-05-04T22:27:41.896Z,2.63
2018-05-04T22:30:10.931Z,2.57
2018-05-04T22:32:38.408Z,2.60
2018-05-04T22:35:06.443Z,2.57
2018-05-04T22:37:33.975Z,2.10
2018-05-04T22:40:01.466Z,2.20
2018-05-04T22:42:29.055Z,3.80
2018-05-04T22:44:58.555Z,3.20
2018-05-04T22:47:26.193Z,2.90
2018-05-04T22:49:53.675Z,1.83
2018-05-04T22:52:21.250Z,1.90
2018-05-04T22:54:48.801Z,1.80
2018-05-04T22:57:17.046Z,2.40
2018-05-04T22:59:44.649Z,2.10
2018-05-04T23:02:13.134Z,2.00
2018-05-04T23:04:40.652Z,2.20
2018-05-04T23:07:08.176Z,2.03
2018-05-04T23:09:35.756Z,2.30
2018-05-04T23:12:04.034Z,2.07
2018-05-04T23:14:32.326Z,2.00
2018-05-04T23:17:00.634Z,2.63
2018-05-04T23:19:28.156Z,2.40
2018-05-04T23:21:55.671Z,2.10
2018-05-04T23:24:23.992Z,2.73
2018-05-04T23:26:51.486Z,2.50
2018-05-04T23:29:19.215Z,2.50
2018-05-04T23:31:46.699Z,2.30
2018-05-04T23:34:14.203Z,3.00
2018-05-04T23:36:41.714Z,4.00
2018-05-04T23:39:10.070Z,3.20
2018-05-04T23:41:37.559Z,2.57
2018-05-04T23:44:05.117Z,3.30
2018-05-04T23:46:32.633Z,2.20
2018-05-04T23:49:00.172Z,2.63
2018-05-04T23:51:29.401Z,2.73
2018-05-04T23:53:56.959Z,2.90
2018-05-04T23:56:25.227Z,2.30
2018-05-04T23:58:52.701Z,2.93
